sensor_id;sensor_type;location;lat;lon;timestamp;temperature;humidity
13375;DHT22;6756;51.354;15.754;2023-01-31T00:01:13;2.80;1.00
13375;DHT22;6756;51.354;15.754;2023-01-31T00:05:14;2.80;1.00
13375;DHT22;6756;51.354;15.754;2023-01-31T00:09:16;2.80;1.00
13375;DHT22;6756;51.354;15.754;2023-01-31T00:13:16;2.90;99.90
13375;DHT22;6756;51.354;15.754;2023-01-31T00:17:17;2.80;99.90
13375;DHT22;6756;51.354;15.754;2023-01-31T00:21:21;2.80;99.90
13375;DHT22;6756;51.354;15.754;2023-01-31T00:25:22;2.80;1.00
13375;DHT22;6756;51.354;15.754;2023-01-31T00:29:23;2.90;99.90
13375;DHT22;6756;51.354;15.754;2023-01-31T00:33:23;2.90;99.90
13375;DHT22;6756;51.354;15.754;2023-01-31T00:37:25;3.00;99.90
13375;DHT22;6756;51.354;15.754;2023-01-31T00:41:27;2.90;99.90
13375;DHT22;6756;51.354;15.754;2023-01-31T00:45:28;3.00;1.00
13375;DHT22;6756;51.354;15.754;2023-01-31T00:49:29;2.90;1.00
13375;DHT22;6756;51.354;15.754;2023-01-31T00:53:30;2.80;1.00
13375;DHT22;6756;51.354;15.754;2023-01-31T00:57:31;2.60;1.00
13375;DHT22;6756;51.354;15.754;2023-01-31T01:01:31;2.60;1.00
13375;DHT22;6756;51.354;15.754;2023-01-31T01:05:32;2.60;99.90
13375;DHT22;6756;51.354;15.754;2023-01-31T01:09:33;2.50;99.90
13375;DHT22;6756;51.354;15.754;2023-01-31T01:13:34;2.50;99.90
13375;DHT22;6756;51.354;15.754;2023-01-31T01:17:35;2.50;99.90
13375;DHT22;6756;51.354;15.754;2023-01-31T01:21:36;2.60;99.90
13375;DHT22;6756;51.354;15.754;2023-01-31T01:25:43;2.50;99.90
13375;DHT22;6756;51.354;15.754;2023-01-31T01:29:44;2.60;99.90
13375;DHT22;6756;51.354;15.754;2023-01-31T01:33:46;2.70;1.00
13375;DHT22;6756;51.354;15.754;2023-01-31T01:37:47;2.80;1.00
13375;DHT22;6756;51.354;15.754;2023-01-31T01:41:48;2.70;1.00
13375;DHT22;6756;51.354;15.754;2023-01-31T01:45:52;2.70;1.00
13375;DHT22;6756;51.354;15.754;2023-01-31T01:49:57;2.80;99.90
13375;DHT22;6756;51.354;15.754;2023-01-31T01:54:02;2.90;99.90
13375;DHT22;6756;51.354;15.754;2023-01-31T01:58:13;2.80;1.00
13375;DHT22;6756;51.354;15.754;2023-01-31T02:02:15;2.80;1.00
13375;DHT22;6756;51.354;15.754;2023-01-31T02:06:16;2.80;1.00
13375;DHT22;6756;51.354;15.754;2023-01-31T02:14:21;2.80;1.00
13375;DHT22;6756;51.354;15.754;2023-01-31T02:18:24;2.80;1.00
13375;DHT22;6756;51.354;15.754;2023-01-31T02:49:20;2.60;1.00
13375;DHT22;6756;51.354;15.754;2023-01-31T02:53:36;2.60;1.00
13375;DHT22;6756;51.354;15.754;2023-01-31T02:57:43;2.50;1.00
13375;DHT22;6756;51.354;15.754;2023-01-31T03:01:47;2.50;1.00
13375;DHT22;6756;51.354;15.754;2023-01-31T03:14:45;2.40;99.90
13375;DHT22;6756;51.354;15.754;2023-01-31T03:23:09;2.00;21.90
13375;DHT22;6756;51.354;15.754;2023-01-31T03:27:11;1.90;1.00
13375;DHT22;6756;51.354;15.754;2023-01-31T03:35:27;1.80;99.90
13375;DHT22;6756;51.354;15.754;2023-01-31T03:39:57;1.70;1.00
13375;DHT22;6756;51.354;15.754;2023-01-31T03:48:30;1.70;99.90
13375;DHT22;6756;51.354;15.754;2023-01-31T03:52:37;1.70;1.00
13375;DHT22;6756;51.354;15.754;2023-01-31T03:57:04;1.70;99.90
13375;DHT22;6756;51.354;15.754;2023-01-31T04:01:08;1.70;1.00
13375;DHT22;6756;51.354;15.754;2023-01-31T04:05:17;1.70;99.90
13375;DHT22;6756;51.354;15.754;2023-01-31T04:09:20;1.80;94.50
13375;DHT22;6756;51.354;15.754;2023-01-31T04:13:20;1.80;1.00
13375;DHT22;6756;51.354;15.754;2023-01-31T04:17:21;1.70;1.00
13375;DHT22;6756;51.354;15.754;2023-01-31T04:21:22;1.70;99.90
13375;DHT22;6756;51.354;15.754;2023-01-31T04:25:23;1.60;99.90
13375;DHT22;6756;51.354;15.754;2023-01-31T04:29:24;1.60;99.90
13375;DHT22;6756;51.354;15.754;2023-01-31T04:33:25;1.60;1.00
13375;DHT22;6756;51.354;15.754;2023-01-31T04:37:25;1.50;99.90
13375;DHT22;6756;51.354;15.754;2023-01-31T04:41:27;1.40;99.90
13375;DHT22;6756;51.354;15.754;2023-01-31T04:45:27;1.20;1.00
13375;DHT22;6756;51.354;15.754;2023-01-31T04:49:28;1.20;1.00
13375;DHT22;6756;51.354;15.754;2023-01-31T04:53:29;1.20;99.90
13375;DHT22;6756;51.354;15.754;2023-01-31T04:57:30;1.20;1.00
13375;DHT22;6756;51.354;15.754;2023-01-31T05:01:30;1.30;1.00
13375;DHT22;6756;51.354;15.754;2023-01-31T05:05:32;1.30;1.00
13375;DHT22;6756;51.354;15.754;2023-01-31T05:09:32;1.40;99.90
13375;DHT22;6756;51.354;15.754;2023-01-31T05:13:34;1.40;99.90
13375;DHT22;6756;51.354;15.754;2023-01-31T05:17:38;1.50;30.30
13375;DHT22;6756;51.354;15.754;2023-01-31T05:21:38;1.60;1.00
13375;DHT22;6756;51.354;15.754;2023-01-31T05:25:54;1.60;99.90
13375;DHT22;6756;51.354;15.754;2023-01-31T05:29:55;1.70;99.90
13375;DHT22;6756;51.354;15.754;2023-01-31T05:33:55;1.70;1.00
13375;DHT22;6756;51.354;15.754;2023-01-31T05:37:56;1.70;99.90
13375;DHT22;6756;51.354;15.754;2023-01-31T05:41:58;1.70;99.90
13375;DHT22;6756;51.354;15.754;2023-01-31T05:45:58;1.70;99.90
13375;DHT22;6756;51.354;15.754;2023-01-31T05:49:59;1.70;99.90
13375;DHT22;6756;51.354;15.754;2023-01-31T05:54:00;1.60;99.90
13375;DHT22;6756;51.354;15.754;2023-01-31T05:58:01;1.70;1.00
13375;DHT22;6756;51.354;15.754;2023-01-31T06:02:02;1.70;99.90
13375;DHT22;6756;51.354;15.754;2023-01-31T06:06:03;1.80;1.00
13375;DHT22;6756;51.354;15.754;2023-01-31T06:10:05;1.80;99.90
13375;DHT22;6756;51.354;15.754;2023-01-31T06:14:08;1.90;99.90
13375;DHT22;6756;51.354;15.754;2023-01-31T06:18:09;1.90;99.90
13375;DHT22;6756;51.354;15.754;2023-01-31T06:22:09;1.90;71.30
13375;DHT22;6756;51.354;15.754;2023-01-31T06:26:11;1.90;66.00
13375;DHT22;6756;51.354;15.754;2023-01-31T06:30:12;1.80;97.80
13375;DHT22;6756;51.354;15.754;2023-01-31T06:34:13;1.80;99.90
13375;DHT22;6756;51.354;15.754;2023-01-31T06:38:14;1.60;99.90
13375;DHT22;6756;51.354;15.754;2023-01-31T06:42:15;1.50;99.90
13375;DHT22;6756;51.354;15.754;2023-01-31T06:46:16;1.30;1.00
13375;DHT22;6756;51.354;15.754;2023-01-31T06:50:17;1.20;99.90
13375;DHT22;6756;51.354;15.754;2023-01-31T06:54:18;1.20;1.00
13375;DHT22;6756;51.354;15.754;2023-01-31T06:58:19;1.20;99.90
13375;DHT22;6756;51.354;15.754;2023-01-31T07:02:20;1.20;99.90
13375;DHT22;6756;51.354;15.754;2023-01-31T07:06:23;1.10;99.90
13375;DHT22;6756;51.354;15.754;2023-01-31T07:10:24;1.10;99.90
13375;DHT22;6756;51.354;15.754;2023-01-31T07:14:25;1.00;1.00
13375;DHT22;6756;51.354;15.754;2023-01-31T07:18:26;1.10;1.00
13375;DHT22;6756;51.354;15.754;2023-01-31T07:22:26;1.20;1.00
13375;DHT22;6756;51.354;15.754;2023-01-31T07:26:27;1.30;99.90
13375;DHT22;6756;51.354;15.754;2023-01-31T07:30:28;1.50;99.90
13375;DHT22;6756;51.354;15.754;2023-01-31T07:34:29;1.70;1.00
13375;DHT22;6756;51.354;15.754;2023-01-31T07:38:31;1.90;99.90
13375;DHT22;6756;51.354;15.754;2023-01-31T07:42:32;2.00;99.90
13375;DHT22;6756;51.354;15.754;2023-01-31T07:46:33;2.20;99.90
13375;DHT22;6756;51.354;15.754;2023-01-31T07:50:34;2.30;90.70
13375;DHT22;6756;51.354;15.754;2023-01-31T07:54:35;2.40;99.90
13375;DHT22;6756;51.354;15.754;2023-01-31T07:58:37;2.40;99.90
13375;DHT22;6756;51.354;15.754;2023-01-31T08:02:38;2.30;99.90
13375;DHT22;6756;51.354;15.754;2023-01-31T08:06:57;2.20;99.90
13375;DHT22;6756;51.354;15.754;2023-01-31T08:11:00;2.20;1.00
13375;DHT22;6756;51.354;15.754;2023-01-31T08:15:01;2.20;1.00
13375;DHT22;6756;51.354;15.754;2023-01-31T08:19:03;2.20;99.90
13375;DHT22;6756;51.354;15.754;2023-01-31T08:23:04;2.20;99.90
13375;DHT22;6756;51.354;15.754;2023-01-31T08:27:04;2.40;1.00
13375;DHT22;6756;51.354;15.754;2023-01-31T08:31:06;2.50;99.90
13375;DHT22;6756;51.354;15.754;2023-01-31T08:35:07;2.50;19.80
13375;DHT22;6756;51.354;15.754;2023-01-31T08:39:08;2.60;99.90
13375;DHT22;6756;51.354;15.754;2023-01-31T08:43:09;2.80;99.90
13375;DHT22;6756;51.354;15.754;2023-01-31T08:47:10;2.90;99.90
13375;DHT22;6756;51.354;15.754;2023-01-31T08:51:12;2.90;1.00
13375;DHT22;6756;51.354;15.754;2023-01-31T08:55:13;3.00;88.70
13375;DHT22;6756;51.354;15.754;2023-01-31T08:59:14;3.00;99.90
13375;DHT22;6756;51.354;15.754;2023-01-31T09:03:15;3.00;1.00
13375;DHT22;6756;51.354;15.754;2023-01-31T09:07:18;3.10;99.90
13375;DHT22;6756;51.354;15.754;2023-01-31T09:11:21;3.20;99.90
13375;DHT22;6756;51.354;15.754;2023-01-31T09:15:21;3.30;1.00
13375;DHT22;6756;51.354;15.754;2023-01-31T09:19:22;3.60;99.90
13375;DHT22;6756;51.354;15.754;2023-01-31T09:23:23;3.60;1.00
13375;DHT22;6756;51.354;15.754;2023-01-31T09:27:24;3.70;1.00
13375;DHT22;6756;51.354;15.754;2023-01-31T09:31:25;3.80;99.90
13375;DHT22;6756;51.354;15.754;2023-01-31T09:35:26;3.80;99.90
13375;DHT22;6756;51.354;15.754;2023-01-31T09:39:27;3.90;99.90
13375;DHT22;6756;51.354;15.754;2023-01-31T09:43:33;4.00;99.90
13375;DHT22;6756;51.354;15.754;2023-01-31T09:47:48;3.90;99.90
13375;DHT22;6756;51.354;15.754;2023-01-31T09:51:54;3.90;99.90
13375;DHT22;6756;51.354;15.754;2023-01-31T10:00:31;3.50;99.90
13375;DHT22;6756;51.354;15.754;2023-01-31T10:04:41;3.50;56.80
13375;DHT22;6756;51.354;15.754;2023-01-31T10:08:52;3.50;99.90
13375;DHT22;6756;51.354;15.754;2023-01-31T10:12:59;3.60;1.00
13375;DHT22;6756;51.354;15.754;2023-01-31T10:17:15;3.80;11.90
13375;DHT22;6756;51.354;15.754;2023-01-31T10:21:20;3.90;99.90
13375;DHT22;6756;51.354;15.754;2023-01-31T10:25:27;4.00;99.90
13375;DHT22;6756;51.354;15.754;2023-01-31T10:29:38;4.10;98.20
13375;DHT22;6756;51.354;15.754;2023-01-31T10:37:56;3.90;99.90
13375;DHT22;6756;51.354;15.754;2023-01-31T10:46:25;3.80;99.90
13375;DHT22;6756;51.354;15.754;2023-01-31T10:59:37;4.00;99.90
13375;DHT22;6756;51.354;15.754;2023-01-31T11:03:40;4.20;99.90
13375;DHT22;6756;51.354;15.754;2023-01-31T11:07:46;4.20;1.00
13375;DHT22;6756;51.354;15.754;2023-01-31T11:11:58;4.00;7.70
13375;DHT22;6756;51.354;15.754;2023-01-31T11:16:01;3.90;99.90
13375;DHT22;6756;51.354;15.754;2023-01-31T11:20:03;3.90;99.90
13375;DHT22;6756;51.354;15.754;2023-01-31T11:24:18;3.90;1.00
13375;DHT22;6756;51.354;15.754;2023-01-31T11:32:48;3.80;99.90
13375;DHT22;6756;51.354;15.754;2023-01-31T11:36:50;3.80;99.90
13375;DHT22;6756;51.354;15.754;2023-01-31T11:40:51;3.80;99.90
13375;DHT22;6756;51.354;15.754;2023-01-31T11:45:03;3.90;61.70
13375;DHT22;6756;51.354;15.754;2023-01-31T11:49:11;3.90;99.90
13375;DHT22;6756;51.354;15.754;2023-01-31T11:57:43;4.20;1.00
13375;DHT22;6756;51.354;15.754;2023-01-31T12:01:50;4.20;99.90
13375;DHT22;6756;51.354;15.754;2023-01-31T12:06:04;4.30;99.90
13375;DHT22;6756;51.354;15.754;2023-01-31T12:14:38;4.30;99.40
13375;DHT22;6756;51.354;15.754;2023-01-31T12:23:38;4.40;99.90
13375;DHT22;6756;51.354;15.754;2023-01-31T12:54:30;4.90;99.90
13375;DHT22;6756;51.354;15.754;2023-01-31T13:02:50;4.80;99.90
13375;DHT22;6756;51.354;15.754;2023-01-31T13:07:05;4.60;1.00
13375;DHT22;6756;51.354;15.754;2023-01-31T13:11:16;4.40;99.90
13375;DHT22;6756;51.354;15.754;2023-01-31T13:15:30;4.40;99.90
13375;DHT22;6756;51.354;15.754;2023-01-31T13:19:53;4.30;99.90
13375;DHT22;6756;51.354;15.754;2023-01-31T13:24:00;4.30;99.90
13375;DHT22;6756;51.354;15.754;2023-01-31T13:28:19;4.30;99.90
13375;DHT22;6756;51.354;15.754;2023-01-31T13:32:34;4.20;99.90
13375;DHT22;6756;51.354;15.754;2023-01-31T13:36:45;4.20;99.90
13375;DHT22;6756;51.354;15.754;2023-01-31T13:40:52;4.20;99.90
13375;DHT22;6756;51.354;15.754;2023-01-31T13:44:54;4.10;99.90
13375;DHT22;6756;51.354;15.754;2023-01-31T13:49:07;4.20;99.90
13375;DHT22;6756;51.354;15.754;2023-01-31T13:53:18;4.20;99.90
13375;DHT22;6756;51.354;15.754;2023-01-31T14:01:29;4.10;1.00
13375;DHT22;6756;51.354;15.754;2023-01-31T14:18:08;4.10;1.00
13375;DHT22;6756;51.354;15.754;2023-01-31T14:22:19;4.00;1.00
13375;DHT22;6756;51.354;15.754;2023-01-31T14:30:43;4.00;99.90
13375;DHT22;6756;51.354;15.754;2023-01-31T14:34:48;4.00;99.90
13375;DHT22;6756;51.354;15.754;2023-01-31T15:00:24;3.70;1.00
13375;DHT22;6756;51.354;15.754;2023-01-31T15:04:27;3.70;1.00
13375;DHT22;6756;51.354;15.754;2023-01-31T15:08:47;3.60;99.90
13375;DHT22;6756;51.354;15.754;2023-01-31T15:12:54;3.60;1.00
13375;DHT22;6756;51.354;15.754;2023-01-31T15:21:24;3.50;99.90
13375;DHT22;6756;51.354;15.754;2023-01-31T15:25:41;3.40;1.00
13375;DHT22;6756;51.354;15.754;2023-01-31T15:29:51;3.30;99.90
13375;DHT22;6756;51.354;15.754;2023-01-31T15:33:58;3.30;96.60
13375;DHT22;6756;51.354;15.754;2023-01-31T15:38:05;3.30;99.90
13375;DHT22;6756;51.354;15.754;2023-01-31T15:42:25;3.20;99.90
13375;DHT22;6756;51.354;15.754;2023-01-31T15:46:30;3.20;99.90
13375;DHT22;6756;51.354;15.754;2023-01-31T15:50:33;3.20;1.00
13375;DHT22;6756;51.354;15.754;2023-01-31T15:54:34;3.10;1.00
13375;DHT22;6756;51.354;15.754;2023-01-31T15:58:36;3.10;1.00
13375;DHT22;6756;51.354;15.754;2023-01-31T16:02:38;3.00;1.00
13375;DHT22;6756;51.354;15.754;2023-01-31T16:06:39;3.00;72.10
13375;DHT22;6756;51.354;15.754;2023-01-31T16:10:42;3.00;99.90
13375;DHT22;6756;51.354;15.754;2023-01-31T16:14:46;3.00;99.90
13375;DHT22;6756;51.354;15.754;2023-01-31T16:18:50;2.90;99.90
13375;DHT22;6756;51.354;15.754;2023-01-31T16:22:55;2.90;1.00
13375;DHT22;6756;51.354;15.754;2023-01-31T16:27:00;2.90;1.00
13375;DHT22;6756;51.354;15.754;2023-01-31T16:31:13;2.90;1.00
13375;DHT22;6756;51.354;15.754;2023-01-31T16:35:26;2.90;2.80
13375;DHT22;6756;51.354;15.754;2023-01-31T16:43:30;2.90;92.00
13375;DHT22;6756;51.354;15.754;2023-01-31T16:51:45;2.80;99.90
13375;DHT22;6756;51.354;15.754;2023-01-31T17:04:24;2.80;99.90
13375;DHT22;6756;51.354;15.754;2023-01-31T17:08:25;2.90;99.90
13375;DHT22;6756;51.354;15.754;2023-01-31T17:12:32;2.90;99.90
13375;DHT22;6756;51.354;15.754;2023-01-31T17:16:33;2.90;99.90
13375;DHT22;6756;51.354;15.754;2023-01-31T17:20:34;2.80;99.90
13375;DHT22;6756;51.354;15.754;2023-01-31T17:24:36;2.80;99.90
13375;DHT22;6756;51.354;15.754;2023-01-31T17:28:37;2.80;99.90
13375;DHT22;6756;51.354;15.754;2023-01-31T17:32:38;2.90;99.90
13375;DHT22;6756;51.354;15.754;2023-01-31T17:36:39;2.90;99.90
13375;DHT22;6756;51.354;15.754;2023-01-31T17:40:41;2.90;99.90
13375;DHT22;6756;51.354;15.754;2023-01-31T17:44:44;2.90;99.90
13375;DHT22;6756;51.354;15.754;2023-01-31T17:48:45;2.90;99.90
13375;DHT22;6756;51.354;15.754;2023-01-31T17:52:46;3.00;99.90
13375;DHT22;6756;51.354;15.754;2023-01-31T17:56:47;3.00;99.90
13375;DHT22;6756;51.354;15.754;2023-01-31T18:00:48;3.00;99.90
13375;DHT22;6756;51.354;15.754;2023-01-31T18:04:51;3.10;99.90
13375;DHT22;6756;51.354;15.754;2023-01-31T18:08:51;3.10;99.90
13375;DHT22;6756;51.354;15.754;2023-01-31T18:12:52;3.10;99.90
13375;DHT22;6756;51.354;15.754;2023-01-31T18:16:53;3.20;99.90
13375;DHT22;6756;51.354;15.754;2023-01-31T18:20:54;3.20;99.90
13375;DHT22;6756;51.354;15.754;2023-01-31T18:24:55;3.20;99.90
13375;DHT22;6756;51.354;15.754;2023-01-31T18:28:56;3.20;99.90
13375;DHT22;6756;51.354;15.754;2023-01-31T18:32:57;3.30;99.90
13375;DHT22;6756;51.354;15.754;2023-01-31T18:37:01;3.30;99.90
13375;DHT22;6756;51.354;15.754;2023-01-31T18:41:05;3.30;99.90
13375;DHT22;6756;51.354;15.754;2023-01-31T18:45:07;3.40;99.90
13375;DHT22;6756;51.354;15.754;2023-01-31T18:49:08;3.40;99.90
13375;DHT22;6756;51.354;15.754;2023-01-31T18:53:09;3.40;99.90
13375;DHT22;6756;51.354;15.754;2023-01-31T18:57:10;3.50;99.90
13375;DHT22;6756;51.354;15.754;2023-01-31T19:01:14;3.50;99.90
13375;DHT22;6756;51.354;15.754;2023-01-31T19:05:15;3.50;99.90
13375;DHT22;6756;51.354;15.754;2023-01-31T19:09:16;3.50;99.90
13375;DHT22;6756;51.354;15.754;2023-01-31T19:13:18;3.50;99.90
13375;DHT22;6756;51.354;15.754;2023-01-31T19:17:18;3.50;99.90
13375;DHT22;6756;51.354;15.754;2023-01-31T19:21:22;3.50;99.90
13375;DHT22;6756;51.354;15.754;2023-01-31T19:25:23;3.50;99.90
13375;DHT22;6756;51.354;15.754;2023-01-31T19:29:24;3.50;99.90
13375;DHT22;6756;51.354;15.754;2023-01-31T19:33:26;3.50;99.90
13375;DHT22;6756;51.354;15.754;2023-01-31T19:37:27;3.50;99.90
13375;DHT22;6756;51.354;15.754;2023-01-31T19:41:29;3.50;99.90
13375;DHT22;6756;51.354;15.754;2023-01-31T19:45:30;3.50;99.90
13375;DHT22;6756;51.354;15.754;2023-01-31T19:49:30;3.50;99.90
13375;DHT22;6756;51.354;15.754;2023-01-31T19:53:32;3.50;99.90
13375;DHT22;6756;51.354;15.754;2023-01-31T19:57:33;3.60;99.90
13375;DHT22;6756;51.354;15.754;2023-01-31T20:01:34;3.50;99.90
13375;DHT22;6756;51.354;15.754;2023-01-31T20:05:35;3.60;99.90
13375;DHT22;6756;51.354;15.754;2023-01-31T20:09:36;3.60;99.90
13375;DHT22;6756;51.354;15.754;2023-01-31T20:13:36;3.70;99.90
13375;DHT22;6756;51.354;15.754;2023-01-31T20:17:38;3.70;99.90
13375;DHT22;6756;51.354;15.754;2023-01-31T20:21:38;3.70;99.90
13375;DHT22;6756;51.354;15.754;2023-01-31T20:25:39;3.70;99.90
13375;DHT22;6756;51.354;15.754;2023-01-31T20:29:40;3.70;99.90
13375;DHT22;6756;51.354;15.754;2023-01-31T20:33:41;3.70;99.90
13375;DHT22;6756;51.354;15.754;2023-01-31T20:37:42;3.80;99.90
13375;DHT22;6756;51.354;15.754;2023-01-31T20:41:43;3.80;99.90
13375;DHT22;6756;51.354;15.754;2023-01-31T20:45:44;3.90;99.90
13375;DHT22;6756;51.354;15.754;2023-01-31T20:49:45;3.90;99.90
13375;DHT22;6756;51.354;15.754;2023-01-31T20:53:46;3.90;18.50
13375;DHT22;6756;51.354;15.754;2023-01-31T20:57:47;3.90;1.00
13375;DHT22;6756;51.354;15.754;2023-01-31T21:01:50;4.00;1.00
13375;DHT22;6756;51.354;15.754;2023-01-31T21:05:51;4.00;99.90
13375;DHT22;6756;51.354;15.754;2023-01-31T21:09:52;4.00;99.90
13375;DHT22;6756;51.354;15.754;2023-01-31T21:13:54;4.10;1.00
13375;DHT22;6756;51.354;15.754;2023-01-31T21:17:55;4.10;99.90
13375;DHT22;6756;51.354;15.754;2023-01-31T21:21:56;4.10;99.90
13375;DHT22;6756;51.354;15.754;2023-01-31T21:26:01;4.20;1.00
13375;DHT22;6756;51.354;15.754;2023-01-31T21:30:03;4.20;99.90
13375;DHT22;6756;51.354;15.754;2023-01-31T21:34:04;4.20;99.90
13375;DHT22;6756;51.354;15.754;2023-01-31T21:38:06;4.30;99.90
13375;DHT22;6756;51.354;15.754;2023-01-31T21:42:08;4.30;1.00
13375;DHT22;6756;51.354;15.754;2023-01-31T21:46:15;4.20;11.10
13375;DHT22;6756;51.354;15.754;2023-01-31T21:50:16;4.30;56.30
13375;DHT22;6756;51.354;15.754;2023-01-31T21:54:17;4.30;52.40
13375;DHT22;6756;51.354;15.754;2023-01-31T21:58:18;4.30;99.90
13375;DHT22;6756;51.354;15.754;2023-01-31T22:02:20;4.30;99.90
13375;DHT22;6756;51.354;15.754;2023-01-31T22:06:24;4.40;99.90
13375;DHT22;6756;51.354;15.754;2023-01-31T22:10:25;4.40;40.10
13375;DHT22;6756;51.354;15.754;2023-01-31T22:14:26;4.40;1.00
13375;DHT22;6756;51.354;15.754;2023-01-31T22:18:27;4.50;99.90
13375;DHT22;6756;51.354;15.754;2023-01-31T22:22:28;4.50;99.90
13375;DHT22;6756;51.354;15.754;2023-01-31T22:26:32;4.50;99.90
13375;DHT22;6756;51.354;15.754;2023-01-31T22:30:33;4.50;99.90
13375;DHT22;6756;51.354;15.754;2023-01-31T22:34:34;4.50;99.90
13375;DHT22;6756;51.354;15.754;2023-01-31T22:38:35;4.40;99.90
13375;DHT22;6756;51.354;15.754;2023-01-31T22:42:36;4.50;99.90
13375;DHT22;6756;51.354;15.754;2023-01-31T22:46:37;4.50;99.90
13375;DHT22;6756;51.354;15.754;2023-01-31T22:50:38;4.50;99.90
13375;DHT22;6756;51.354;15.754;2023-01-31T22:54:38;4.50;99.90
13375;DHT22;6756;51.354;15.754;2023-01-31T22:58:40;4.50;99.90
13375;DHT22;6756;51.354;15.754;2023-01-31T23:02:41;4.60;60.30
13375;DHT22;6756;51.354;15.754;2023-01-31T23:06:41;4.60;99.90
13375;DHT22;6756;51.354;15.754;2023-01-31T23:10:43;4.40;1.00
13375;DHT22;6756;51.354;15.754;2023-01-31T23:14:43;3.60;18.60
13375;DHT22;6756;51.354;15.754;2023-01-31T23:18:45;3.30;1.00
13375;DHT22;6756;51.354;15.754;2023-01-31T23:22:53;2.90;25.40
13375;DHT22;6756;51.354;15.754;2023-01-31T23:26:54;2.60;99.90
13375;DHT22;6756;51.354;15.754;2023-01-31T23:30:55;2.40;99.90
13375;DHT22;6756;51.354;15.754;2023-01-31T23:34:56;2.50;99.90
13375;DHT22;6756;51.354;15.754;2023-01-31T23:38:57;2.50;99.90
13375;DHT22;6756;51.354;15.754;2023-01-31T23:42:57;2.40;99.90
13375;DHT22;6756;51.354;15.754;2023-01-31T23:46:58;2.40;99.90
13375;DHT22;6756;51.354;15.754;2023-01-31T23:51:02;2.40;99.90
13375;DHT22;6756;51.354;15.754;2023-01-31T23:55:04;2.40;99.90
13375;DHT22;6756;51.354;15.754;2023-01-31T23:59:05;2.30;99.90
